Portada
METAR-TAF:

METAR-TAF

Aeropuertos :

Clermont-Ferrand, Francia

Aeropuerto de Clermont-Ferrand/Auvergne

latitud: 45-47N, longitud: 003-10E, altitud: 332 m

Observación

El informe se hizo hace 26 minutos, a las 09:00 UTC
Viento 1 kt con dirección variable
Temperatura 15°C
Humedad 48%
Presión 1016 hPa
Visibilidad 10 km o más
sin nubes por debajo de 1500 m y sin presencia de cumulonimbus.

METAR: LFLC 240900Z AUTO VRB01KT CAVOK 15/04 Q1016 NOSIG

Hora: 11:26 (09:26 UTC)

Pronóstico

El informe se hizo hace 1 hora y 26 minutos, a las 08:00 UTC
Pronóstico válido del 24 a las 09 UTC al 25 a las 09 UTC
Viento 4 kt con dirección variable
Visibilidad 10 km o más
sin nubes por debajo de 1500 m y sin presencia de cumulonimbus.
Probabilidad 40% :
Temporalmente
del 25 a las 07 UTC al 25 a las 09 UTC
Cielo nuboso a una altura de 5000 ft
chaparrones de lluvia

TAF: LFLC 240800Z 2409/2509 VRB04KT CAVOK PROB40 TEMPO 2507/2509 SHRA BKN050

Observaciones y pronósticos meteorológicos de más de 4000 aeropuertos (mensajes METAR y TAF).

Los puntos amarillos y rojos representan las estaciones disponibles.

Ponga el ratón en el punto deseado para ver el nombre de la estación.

Haga clic para ver las observaciones y los pronósticos meteorológicos.

Para cambiar el mapa : haga clic en los botones verdes con una cruz de color negro para hacer un zoom, en el botón verde con un guión para alejar o en las flechas verdes para mapas adyacentes.


METAR-TAF: